sensor_id;sensor_type;location;lat;lon;timestamp;temperature;humidity
6164;DHT22;3114;48.362;10.994;2022-12-07T00:00:49;5.60;99.90
6164;DHT22;3114;48.362;10.994;2022-12-07T00:03:16;5.70;99.90
6164;DHT22;3114;48.362;10.994;2022-12-07T00:05:43;5.70;99.90
6164;DHT22;3114;48.362;10.994;2022-12-07T00:08:11;5.80;99.90
6164;DHT22;3114;48.362;10.994;2022-12-07T00:10:38;5.80;99.90
6164;DHT22;3114;48.362;10.994;2022-12-07T00:13:05;5.80;99.90
6164;DHT22;3114;48.362;10.994;2022-12-07T00:15:33;5.90;99.90
6164;DHT22;3114;48.362;10.994;2022-12-07T00:18:01;6.00;99.90
6164;DHT22;3114;48.362;10.994;2022-12-07T00:20:28;6.10;99.90
6164;DHT22;3114;48.362;10.994;2022-12-07T00:22:55;6.10;99.90
6164;DHT22;3114;48.362;10.994;2022-12-07T00:25:24;6.00;99.90
6164;DHT22;3114;48.362;10.994;2022-12-07T00:27:52;6.00;99.90
6164;DHT22;3114;48.362;10.994;2022-12-07T00:30:21;6.00;99.90
6164;DHT22;3114;48.362;10.994;2022-12-07T00:32:48;6.10;99.90
6164;DHT22;3114;48.362;10.994;2022-12-07T00:35:14;5.60;99.90
6164;DHT22;3114;48.362;10.994;2022-12-07T00:37:41;5.30;99.90
6164;DHT22;3114;48.362;10.994;2022-12-07T00:40:09;5.30;99.90
6164;DHT22;3114;48.362;10.994;2022-12-07T00:42:37;5.20;99.90
6164;DHT22;3114;48.362;10.994;2022-12-07T00:45:05;5.00;99.90
6164;DHT22;3114;48.362;10.994;2022-12-07T00:47:32;4.90;99.90
6164;DHT22;3114;48.362;10.994;2022-12-07T00:49:59;4.60;99.90
6164;DHT22;3114;48.362;10.994;2022-12-07T00:52:25;4.70;99.90
6164;DHT22;3114;48.362;10.994;2022-12-07T00:54:52;4.80;99.90
6164;DHT22;3114;48.362;10.994;2022-12-07T00:57:19;5.10;99.90
6164;DHT22;3114;48.362;10.994;2022-12-07T00:59:48;5.20;99.90
6164;DHT22;3114;48.362;10.994;2022-12-07T01:02:15;5.20;99.90
6164;DHT22;3114;48.362;10.994;2022-12-07T01:04:41;5.20;99.90
6164;DHT22;3114;48.362;10.994;2022-12-07T01:07:08;5.20;99.90
6164;DHT22;3114;48.362;10.994;2022-12-07T01:09:35;5.20;99.90
6164;DHT22;3114;48.362;10.994;2022-12-07T01:12:02;5.20;99.90
6164;DHT22;3114;48.362;10.994;2022-12-07T01:14:29;5.30;99.90
6164;DHT22;3114;48.362;10.994;2022-12-07T01:16:57;5.40;99.90
6164;DHT22;3114;48.362;10.994;2022-12-07T01:19:24;5.60;99.90
6164;DHT22;3114;48.362;10.994;2022-12-07T01:21:51;5.80;99.90
6164;DHT22;3114;48.362;10.994;2022-12-07T01:24:18;5.70;99.90
6164;DHT22;3114;48.362;10.994;2022-12-07T01:26:44;5.70;99.90
6164;DHT22;3114;48.362;10.994;2022-12-07T01:29:11;5.60;99.90
6164;DHT22;3114;48.362;10.994;2022-12-07T01:31:38;5.70;99.90
6164;DHT22;3114;48.362;10.994;2022-12-07T01:34:06;5.70;99.90
6164;DHT22;3114;48.362;10.994;2022-12-07T01:36:35;5.90;99.90
6164;DHT22;3114;48.362;10.994;2022-12-07T01:39:04;6.10;99.90
6164;DHT22;3114;48.362;10.994;2022-12-07T01:41:33;6.00;99.90
6164;DHT22;3114;48.362;10.994;2022-12-07T01:44:10;6.10;99.90
6164;DHT22;3114;48.362;10.994;2022-12-07T01:46:38;6.10;99.90
6164;DHT22;3114;48.362;10.994;2022-12-07T01:49:09;6.10;99.90
6164;DHT22;3114;48.362;10.994;2022-12-07T01:51:38;5.80;99.90
6164;DHT22;3114;48.362;10.994;2022-12-07T01:54:07;5.70;99.90
6164;DHT22;3114;48.362;10.994;2022-12-07T01:56:34;5.80;99.90
6164;DHT22;3114;48.362;10.994;2022-12-07T01:59:02;5.30;99.90
6164;DHT22;3114;48.362;10.994;2022-12-07T02:01:30;5.40;99.90
6164;DHT22;3114;48.362;10.994;2022-12-07T02:03:57;5.50;99.90
6164;DHT22;3114;48.362;10.994;2022-12-07T02:06:26;5.60;99.90
6164;DHT22;3114;48.362;10.994;2022-12-07T02:08:53;5.80;99.90
6164;DHT22;3114;48.362;10.994;2022-12-07T02:11:20;5.50;99.90
6164;DHT22;3114;48.362;10.994;2022-12-07T02:13:47;5.30;99.90
6164;DHT22;3114;48.362;10.994;2022-12-07T02:16:25;5.30;99.90
6164;DHT22;3114;48.362;10.994;2022-12-07T02:19:10;5.10;99.90
6164;DHT22;3114;48.362;10.994;2022-12-07T02:21:46;5.20;99.90
6164;DHT22;3114;48.362;10.994;2022-12-07T02:24:29;5.00;99.90
6164;DHT22;3114;48.362;10.994;2022-12-07T02:27:16;4.90;99.90
6164;DHT22;3114;48.362;10.994;2022-12-07T02:29:56;5.00;99.90
6164;DHT22;3114;48.362;10.994;2022-12-07T02:32:27;5.00;99.90
6164;DHT22;3114;48.362;10.994;2022-12-07T02:34:58;5.30;99.90
6164;DHT22;3114;48.362;10.994;2022-12-07T02:37:36;5.20;99.90
6164;DHT22;3114;48.362;10.994;2022-12-07T02:40:13;5.30;99.90
6164;DHT22;3114;48.362;10.994;2022-12-07T02:42:45;5.50;99.90
6164;DHT22;3114;48.362;10.994;2022-12-07T02:45:17;5.60;99.90
6164;DHT22;3114;48.362;10.994;2022-12-07T02:47:46;5.60;99.90
6164;DHT22;3114;48.362;10.994;2022-12-07T02:50:17;5.60;99.90
6164;DHT22;3114;48.362;10.994;2022-12-07T02:52:44;5.50;99.90
6164;DHT22;3114;48.362;10.994;2022-12-07T02:55:12;5.60;99.90
6164;DHT22;3114;48.362;10.994;2022-12-07T02:57:54;5.70;99.90
6164;DHT22;3114;48.362;10.994;2022-12-07T03:00:24;5.70;99.90
6164;DHT22;3114;48.362;10.994;2022-12-07T03:02:55;5.40;99.90
6164;DHT22;3114;48.362;10.994;2022-12-07T03:06:03;5.30;99.90
6164;DHT22;3114;48.362;10.994;2022-12-07T03:08:39;5.00;99.90
6164;DHT22;3114;48.362;10.994;2022-12-07T03:11:13;4.80;99.90
6164;DHT22;3114;48.362;10.994;2022-12-07T03:13:47;4.90;99.90
6164;DHT22;3114;48.362;10.994;2022-12-07T03:16:19;5.00;99.90
6164;DHT22;3114;48.362;10.994;2022-12-07T03:18:49;5.10;99.90
6164;DHT22;3114;48.362;10.994;2022-12-07T03:21:21;4.90;99.90
6164;DHT22;3114;48.362;10.994;2022-12-07T03:23:52;4.70;99.90
6164;DHT22;3114;48.362;10.994;2022-12-07T03:26:23;5.00;99.90
6164;DHT22;3114;48.362;10.994;2022-12-07T03:28:54;5.30;99.90
6164;DHT22;3114;48.362;10.994;2022-12-07T03:31:26;5.20;99.90
6164;DHT22;3114;48.362;10.994;2022-12-07T03:33:58;5.10;99.90
6164;DHT22;3114;48.362;10.994;2022-12-07T03:36:32;5.00;99.90
6164;DHT22;3114;48.362;10.994;2022-12-07T03:39:07;4.90;99.90
6164;DHT22;3114;48.362;10.994;2022-12-07T03:41:37;4.70;99.90
6164;DHT22;3114;48.362;10.994;2022-12-07T03:44:05;4.90;99.90
6164;DHT22;3114;48.362;10.994;2022-12-07T03:46:40;4.90;99.90
6164;DHT22;3114;48.362;10.994;2022-12-07T03:49:12;4.80;99.90
6164;DHT22;3114;48.362;10.994;2022-12-07T03:51:46;5.00;99.90
6164;DHT22;3114;48.362;10.994;2022-12-07T03:54:20;5.00;99.90
6164;DHT22;3114;48.362;10.994;2022-12-07T03:56:49;5.00;99.90
6164;DHT22;3114;48.362;10.994;2022-12-07T03:59:17;4.80;99.90
6164;DHT22;3114;48.362;10.994;2022-12-07T04:01:52;4.80;99.90
6164;DHT22;3114;48.362;10.994;2022-12-07T04:04:20;4.80;99.90
6164;DHT22;3114;48.362;10.994;2022-12-07T04:06:47;4.90;99.90
6164;DHT22;3114;48.362;10.994;2022-12-07T04:09:13;5.00;99.90
6164;DHT22;3114;48.362;10.994;2022-12-07T04:11:41;5.20;99.90
6164;DHT22;3114;48.362;10.994;2022-12-07T04:14:07;5.30;99.90
6164;DHT22;3114;48.362;10.994;2022-12-07T04:16:49;5.20;99.90
6164;DHT22;3114;48.362;10.994;2022-12-07T04:19:17;5.30;99.90
6164;DHT22;3114;48.362;10.994;2022-12-07T04:21:44;5.50;99.90
6164;DHT22;3114;48.362;10.994;2022-12-07T04:24:12;5.60;99.90
6164;DHT22;3114;48.362;10.994;2022-12-07T04:26:40;5.60;99.90
6164;DHT22;3114;48.362;10.994;2022-12-07T04:29:07;5.10;99.90
6164;DHT22;3114;48.362;10.994;2022-12-07T04:31:34;4.90;99.90
6164;DHT22;3114;48.362;10.994;2022-12-07T04:34:03;4.60;99.90
6164;DHT22;3114;48.362;10.994;2022-12-07T04:36:30;4.80;99.90
6164;DHT22;3114;48.362;10.994;2022-12-07T04:38:57;4.90;99.90
6164;DHT22;3114;48.362;10.994;2022-12-07T04:41:25;5.00;99.90
6164;DHT22;3114;48.362;10.994;2022-12-07T04:43:54;4.80;99.90
6164;DHT22;3114;48.362;10.994;2022-12-07T04:46:22;4.80;99.90
6164;DHT22;3114;48.362;10.994;2022-12-07T04:48:49;4.60;99.90
6164;DHT22;3114;48.362;10.994;2022-12-07T04:51:20;4.70;99.90
6164;DHT22;3114;48.362;10.994;2022-12-07T04:53:47;4.80;99.90
6164;DHT22;3114;48.362;10.994;2022-12-07T04:56:14;4.80;99.90
6164;DHT22;3114;48.362;10.994;2022-12-07T04:58:41;4.80;99.90
6164;DHT22;3114;48.362;10.994;2022-12-07T05:01:09;4.90;99.90
6164;DHT22;3114;48.362;10.994;2022-12-07T05:03:36;5.20;99.90
6164;DHT22;3114;48.362;10.994;2022-12-07T05:06:03;5.30;99.90
6164;DHT22;3114;48.362;10.994;2022-12-07T05:08:31;5.60;99.90
6164;DHT22;3114;48.362;10.994;2022-12-07T05:10:58;5.70;99.90
6164;DHT22;3114;48.362;10.994;2022-12-07T05:13:25;5.30;99.90
6164;DHT22;3114;48.362;10.994;2022-12-07T05:15:52;5.40;99.90
6164;DHT22;3114;48.362;10.994;2022-12-07T05:18:19;5.50;99.90
6164;DHT22;3114;48.362;10.994;2022-12-07T05:20:46;5.40;99.90
6164;DHT22;3114;48.362;10.994;2022-12-07T05:23:13;5.40;99.90
6164;DHT22;3114;48.362;10.994;2022-12-07T05:25:41;5.50;99.90
6164;DHT22;3114;48.362;10.994;2022-12-07T05:28:08;5.40;99.90
6164;DHT22;3114;48.362;10.994;2022-12-07T05:30:35;5.50;99.90
6164;DHT22;3114;48.362;10.994;2022-12-07T05:33:02;5.10;99.90
6164;DHT22;3114;48.362;10.994;2022-12-07T05:35:29;4.90;99.90
6164;DHT22;3114;48.362;10.994;2022-12-07T05:37:56;4.80;99.90
6164;DHT22;3114;48.362;10.994;2022-12-07T05:40:24;4.40;99.90
6164;DHT22;3114;48.362;10.994;2022-12-07T05:42:52;4.60;99.90
6164;DHT22;3114;48.362;10.994;2022-12-07T05:45:19;4.80;99.90
6164;DHT22;3114;48.362;10.994;2022-12-07T05:47:45;4.90;99.90
6164;DHT22;3114;48.362;10.994;2022-12-07T05:50:12;4.90;99.90
6164;DHT22;3114;48.362;10.994;2022-12-07T05:52:39;4.70;99.90
6164;DHT22;3114;48.362;10.994;2022-12-07T05:55:06;4.70;99.90
6164;DHT22;3114;48.362;10.994;2022-12-07T05:57:33;4.60;99.90
6164;DHT22;3114;48.362;10.994;2022-12-07T06:00:02;4.20;99.90
6164;DHT22;3114;48.362;10.994;2022-12-07T06:02:28;4.30;99.90
6164;DHT22;3114;48.362;10.994;2022-12-07T06:04:55;4.40;99.90
6164;DHT22;3114;48.362;10.994;2022-12-07T06:07:22;4.50;99.90
6164;DHT22;3114;48.362;10.994;2022-12-07T06:09:49;4.20;99.90
6164;DHT22;3114;48.362;10.994;2022-12-07T06:12:16;4.40;99.90
6164;DHT22;3114;48.362;10.994;2022-12-07T06:15:00;4.40;99.90
6164;DHT22;3114;48.362;10.994;2022-12-07T06:17:28;4.10;99.90
6164;DHT22;3114;48.362;10.994;2022-12-07T06:19:55;4.10;99.90
6164;DHT22;3114;48.362;10.994;2022-12-07T06:22:22;4.10;99.90
6164;DHT22;3114;48.362;10.994;2022-12-07T06:24:48;4.00;99.90
6164;DHT22;3114;48.362;10.994;2022-12-07T06:27:15;3.90;99.90
6164;DHT22;3114;48.362;10.994;2022-12-07T06:29:42;3.90;99.90
6164;DHT22;3114;48.362;10.994;2022-12-07T06:32:09;3.80;99.90
6164;DHT22;3114;48.362;10.994;2022-12-07T06:34:38;3.70;99.90
6164;DHT22;3114;48.362;10.994;2022-12-07T06:37:05;3.90;99.90
6164;DHT22;3114;48.362;10.994;2022-12-07T06:39:32;3.60;99.90
6164;DHT22;3114;48.362;10.994;2022-12-07T06:41:59;3.50;99.90
6164;DHT22;3114;48.362;10.994;2022-12-07T06:44:26;3.60;99.90
6164;DHT22;3114;48.362;10.994;2022-12-07T06:46:53;3.70;99.90
6164;DHT22;3114;48.362;10.994;2022-12-07T06:49:20;3.60;99.90
6164;DHT22;3114;48.362;10.994;2022-12-07T06:51:48;3.70;99.90
6164;DHT22;3114;48.362;10.994;2022-12-07T06:54:15;3.70;99.90
6164;DHT22;3114;48.362;10.994;2022-12-07T06:56:43;3.70;99.90
6164;DHT22;3114;48.362;10.994;2022-12-07T06:59:10;3.60;99.90
6164;DHT22;3114;48.362;10.994;2022-12-07T07:01:37;3.60;99.90
6164;DHT22;3114;48.362;10.994;2022-12-07T07:04:04;3.60;99.90
6164;DHT22;3114;48.362;10.994;2022-12-07T07:06:31;3.60;99.90
6164;DHT22;3114;48.362;10.994;2022-12-07T07:09:00;3.70;99.90
6164;DHT22;3114;48.362;10.994;2022-12-07T07:11:27;3.70;99.90
6164;DHT22;3114;48.362;10.994;2022-12-07T07:13:54;3.60;99.90
6164;DHT22;3114;48.362;10.994;2022-12-07T07:16:23;3.70;99.90
6164;DHT22;3114;48.362;10.994;2022-12-07T07:18:50;3.80;99.90
6164;DHT22;3114;48.362;10.994;2022-12-07T07:21:16;3.90;99.90
6164;DHT22;3114;48.362;10.994;2022-12-07T07:23:43;3.90;99.90
6164;DHT22;3114;48.362;10.994;2022-12-07T07:26:11;3.70;99.90
6164;DHT22;3114;48.362;10.994;2022-12-07T07:28:39;3.80;99.90
6164;DHT22;3114;48.362;10.994;2022-12-07T07:31:06;4.10;99.90
6164;DHT22;3114;48.362;10.994;2022-12-07T07:33:33;4.30;99.90
6164;DHT22;3114;48.362;10.994;2022-12-07T07:35:59;4.20;99.90
6164;DHT22;3114;48.362;10.994;2022-12-07T07:38:26;4.00;99.90
6164;DHT22;3114;48.362;10.994;2022-12-07T07:40:53;3.90;99.90
6164;DHT22;3114;48.362;10.994;2022-12-07T07:43:21;3.80;99.90
6164;DHT22;3114;48.362;10.994;2022-12-07T07:45:48;4.10;99.90
6164;DHT22;3114;48.362;10.994;2022-12-07T07:48:16;4.40;99.90
6164;DHT22;3114;48.362;10.994;2022-12-07T07:50:43;4.60;99.90
6164;DHT22;3114;48.362;10.994;2022-12-07T07:53:10;4.50;99.90
6164;DHT22;3114;48.362;10.994;2022-12-07T07:55:36;4.50;99.90
6164;DHT22;3114;48.362;10.994;2022-12-07T07:58:03;4.30;99.90
6164;DHT22;3114;48.362;10.994;2022-12-07T08:00:31;4.20;99.90
6164;DHT22;3114;48.362;10.994;2022-12-07T08:02:58;4.00;99.90
6164;DHT22;3114;48.362;10.994;2022-12-07T08:05:25;3.80;99.90
6164;DHT22;3114;48.362;10.994;2022-12-07T08:07:52;3.70;99.90
6164;DHT22;3114;48.362;10.994;2022-12-07T08:10:19;3.80;99.90
6164;DHT22;3114;48.362;10.994;2022-12-07T08:12:46;3.70;99.90
6164;DHT22;3114;48.362;10.994;2022-12-07T08:15:31;3.60;99.90
6164;DHT22;3114;48.362;10.994;2022-12-07T08:17:58;3.60;99.90
6164;DHT22;3114;48.362;10.994;2022-12-07T08:20:25;3.60;99.90
6164;DHT22;3114;48.362;10.994;2022-12-07T08:22:52;3.60;99.90
6164;DHT22;3114;48.362;10.994;2022-12-07T08:25:19;3.60;99.90
6164;DHT22;3114;48.362;10.994;2022-12-07T08:27:48;3.80;99.90
6164;DHT22;3114;48.362;10.994;2022-12-07T08:30:15;3.70;99.90
6164;DHT22;3114;48.362;10.994;2022-12-07T08:32:44;3.70;99.90
6164;DHT22;3114;48.362;10.994;2022-12-07T08:35:11;3.70;99.90
6164;DHT22;3114;48.362;10.994;2022-12-07T08:37:38;3.80;99.90
6164;DHT22;3114;48.362;10.994;2022-12-07T08:40:07;3.90;99.90
6164;DHT22;3114;48.362;10.994;2022-12-07T08:42:34;4.00;99.90
6164;DHT22;3114;48.362;10.994;2022-12-07T08:45:06;4.00;99.90
6164;DHT22;3114;48.362;10.994;2022-12-07T08:47:34;3.90;99.90
6164;DHT22;3114;48.362;10.994;2022-12-07T08:50:06;4.00;99.90
6164;DHT22;3114;48.362;10.994;2022-12-07T08:52:35;4.00;99.90
6164;DHT22;3114;48.362;10.994;2022-12-07T08:55:04;3.90;99.90
6164;DHT22;3114;48.362;10.994;2022-12-07T08:57:32;3.90;99.90
6164;DHT22;3114;48.362;10.994;2022-12-07T09:00:01;3.80;99.90
6164;DHT22;3114;48.362;10.994;2022-12-07T09:02:28;3.80;99.90
6164;DHT22;3114;48.362;10.994;2022-12-07T09:04:55;3.80;99.90
6164;DHT22;3114;48.362;10.994;2022-12-07T09:07:23;3.70;99.90
6164;DHT22;3114;48.362;10.994;2022-12-07T09:09:50;3.80;99.90
6164;DHT22;3114;48.362;10.994;2022-12-07T09:12:17;3.80;99.90
6164;DHT22;3114;48.362;10.994;2022-12-07T09:14:44;3.80;99.90
6164;DHT22;3114;48.362;10.994;2022-12-07T09:17:12;3.70;99.90
6164;DHT22;3114;48.362;10.994;2022-12-07T09:19:39;3.70;99.90
6164;DHT22;3114;48.362;10.994;2022-12-07T09:22:08;3.80;99.90
6164;DHT22;3114;48.362;10.994;2022-12-07T09:24:37;3.80;99.90
6164;DHT22;3114;48.362;10.994;2022-12-07T09:27:03;3.80;99.90
6164;DHT22;3114;48.362;10.994;2022-12-07T09:29:30;3.90;99.90
6164;DHT22;3114;48.362;10.994;2022-12-07T09:31:57;4.10;99.90
6164;DHT22;3114;48.362;10.994;2022-12-07T09:34:24;4.30;99.90
6164;DHT22;3114;48.362;10.994;2022-12-07T09:36:51;4.50;99.90
6164;DHT22;3114;48.362;10.994;2022-12-07T09:39:18;4.60;99.90
6164;DHT22;3114;48.362;10.994;2022-12-07T09:41:46;4.70;99.90
6164;DHT22;3114;48.362;10.994;2022-12-07T09:44:18;4.60;99.90
6164;DHT22;3114;48.362;10.994;2022-12-07T09:46:47;4.40;99.90
6164;DHT22;3114;48.362;10.994;2022-12-07T09:49:18;4.40;99.90
6164;DHT22;3114;48.362;10.994;2022-12-07T09:51:46;4.60;99.90
6164;DHT22;3114;48.362;10.994;2022-12-07T09:54:14;4.90;99.90
6164;DHT22;3114;48.362;10.994;2022-12-07T09:56:42;4.90;99.90
6164;DHT22;3114;48.362;10.994;2022-12-07T09:59:14;4.80;99.90
6164;DHT22;3114;48.362;10.994;2022-12-07T10:01:43;4.70;99.90
6164;DHT22;3114;48.362;10.994;2022-12-07T10:04:12;4.90;99.90
6164;DHT22;3114;48.362;10.994;2022-12-07T10:06:41;5.10;99.90
6164;DHT22;3114;48.362;10.994;2022-12-07T10:09:11;5.00;99.90
6164;DHT22;3114;48.362;10.994;2022-12-07T10:12:01;5.30;99.90
6164;DHT22;3114;48.362;10.994;2022-12-07T10:14:31;5.70;99.90
6164;DHT22;3114;48.362;10.994;2022-12-07T10:16:58;6.00;99.90
6164;DHT22;3114;48.362;10.994;2022-12-07T10:19:27;5.80;99.90
6164;DHT22;3114;48.362;10.994;2022-12-07T10:22:03;5.90;99.90
6164;DHT22;3114;48.362;10.994;2022-12-07T10:24:31;5.70;99.90
6164;DHT22;3114;48.362;10.994;2022-12-07T10:26:58;6.20;99.90
6164;DHT22;3114;48.362;10.994;2022-12-07T10:29:30;6.40;99.90
6164;DHT22;3114;48.362;10.994;2022-12-07T10:31:59;6.60;99.90
6164;DHT22;3114;48.362;10.994;2022-12-07T10:34:28;6.80;99.90
6164;DHT22;3114;48.362;10.994;2022-12-07T10:37:13;6.80;99.90
6164;DHT22;3114;48.362;10.994;2022-12-07T10:39:43;6.80;99.90
6164;DHT22;3114;48.362;10.994;2022-12-07T10:42:18;6.70;99.90
6164;DHT22;3114;48.362;10.994;2022-12-07T10:44:47;6.90;99.90
6164;DHT22;3114;48.362;10.994;2022-12-07T10:47:28;6.90;99.90
6164;DHT22;3114;48.362;10.994;2022-12-07T10:50:17;7.10;99.90
6164;DHT22;3114;48.362;10.994;2022-12-07T10:56:19;7.00;99.90
6164;DHT22;3114;48.362;10.994;2022-12-07T10:59:01;6.90;99.90
6164;DHT22;3114;48.362;10.994;2022-12-07T11:01:36;7.00;99.90
6164;DHT22;3114;48.362;10.994;2022-12-07T11:04:22;6.40;99.90
6164;DHT22;3114;48.362;10.994;2022-12-07T11:06:57;6.60;99.90
6164;DHT22;3114;48.362;10.994;2022-12-07T11:09:57;6.80;99.90
6164;DHT22;3114;48.362;10.994;2022-12-07T11:12:33;7.00;99.90
6164;DHT22;3114;48.362;10.994;2022-12-07T11:15:09;7.00;99.90
6164;DHT22;3114;48.362;10.994;2022-12-07T11:17:45;6.90;99.90
6164;DHT22;3114;48.362;10.994;2022-12-07T11:20:29;6.70;99.90
6164;DHT22;3114;48.362;10.994;2022-12-07T11:23:04;6.50;99.90
6164;DHT22;3114;48.362;10.994;2022-12-07T11:25:43;6.30;99.90
6164;DHT22;3114;48.362;10.994;2022-12-07T11:28:20;6.60;99.90
6164;DHT22;3114;48.362;10.994;2022-12-07T11:30:57;6.80;99.90
6164;DHT22;3114;48.362;10.994;2022-12-07T11:33:36;6.90;99.90
6164;DHT22;3114;48.362;10.994;2022-12-07T11:36:14;7.00;99.90
6164;DHT22;3114;48.362;10.994;2022-12-07T11:38:47;7.10;99.90
6164;DHT22;3114;48.362;10.994;2022-12-07T11:41:20;7.20;99.90
6164;DHT22;3114;48.362;10.994;2022-12-07T11:43:55;7.10;99.90
6164;DHT22;3114;48.362;10.994;2022-12-07T11:46:24;7.10;99.90
6164;DHT22;3114;48.362;10.994;2022-12-07T11:49:01;7.20;99.90
6164;DHT22;3114;48.362;10.994;2022-12-07T11:51:30;7.20;99.90
6164;DHT22;3114;48.362;10.994;2022-12-07T11:54:03;6.80;99.90
6164;DHT22;3114;48.362;10.994;2022-12-07T11:56:35;6.60;99.90
6164;DHT22;3114;48.362;10.994;2022-12-07T11:59:08;6.70;99.90
6164;DHT22;3114;48.362;10.994;2022-12-07T12:01:52;6.90;99.90
6164;DHT22;3114;48.362;10.994;2022-12-07T12:04:32;7.10;99.90
6164;DHT22;3114;48.362;10.994;2022-12-07T12:07:00;7.00;99.90
6164;DHT22;3114;48.362;10.994;2022-12-07T12:09:30;6.50;99.90
6164;DHT22;3114;48.362;10.994;2022-12-07T12:12:15;6.10;99.90
6164;DHT22;3114;48.362;10.994;2022-12-07T12:14:53;6.30;99.90
6164;DHT22;3114;48.362;10.994;2022-12-07T12:17:43;6.60;99.90
6164;DHT22;3114;48.362;10.994;2022-12-07T12:20:22;6.90;99.90
6164;DHT22;3114;48.362;10.994;2022-12-07T12:22:53;7.10;99.90
6164;DHT22;3114;48.362;10.994;2022-12-07T12:25:24;7.10;99.90
6164;DHT22;3114;48.362;10.994;2022-12-07T12:27:53;7.30;99.90
6164;DHT22;3114;48.362;10.994;2022-12-07T12:30:32;7.30;99.90
6164;DHT22;3114;48.362;10.994;2022-12-07T12:33:13;7.20;99.90
6164;DHT22;3114;48.362;10.994;2022-12-07T12:35:42;7.30;99.90
6164;DHT22;3114;48.362;10.994;2022-12-07T12:38:31;7.30;99.90
6164;DHT22;3114;48.362;10.994;2022-12-07T12:41:00;7.30;99.90
6164;DHT22;3114;48.362;10.994;2022-12-07T12:43:54;7.30;99.90
6164;DHT22;3114;48.362;10.994;2022-12-07T12:46:54;6.80;99.90
6164;DHT22;3114;48.362;10.994;2022-12-07T12:49:43;6.80;99.90
6164;DHT22;3114;48.362;10.994;2022-12-07T12:58:30;6.00;99.90
6164;DHT22;3114;48.362;10.994;2022-12-07T13:07:13;6.00;99.90
6164;DHT22;3114;48.362;10.994;2022-12-07T13:09:59;5.80;99.90
6164;DHT22;3114;48.362;10.994;2022-12-07T13:12:27;6.00;99.90
6164;DHT22;3114;48.362;10.994;2022-12-07T13:14:56;6.00;99.90
6164;DHT22;3114;48.362;10.994;2022-12-07T13:17:56;5.90;99.90
6164;DHT22;3114;48.362;10.994;2022-12-07T13:20:51;5.80;99.90
6164;DHT22;3114;48.362;10.994;2022-12-07T13:23:33;5.60;99.90
6164;DHT22;3114;48.362;10.994;2022-12-07T13:26:13;5.80;99.90
6164;DHT22;3114;48.362;10.994;2022-12-07T13:28:44;5.90;99.90
6164;DHT22;3114;48.362;10.994;2022-12-07T13:31:22;5.80;99.90
6164;DHT22;3114;48.362;10.994;2022-12-07T13:33:49;5.70;99.90
6164;DHT22;3114;48.362;10.994;2022-12-07T13:36:21;5.80;99.90
6164;DHT22;3114;48.362;10.994;2022-12-07T13:38:54;6.10;99.90
6164;DHT22;3114;48.362;10.994;2022-12-07T13:41:22;5.90;99.90
6164;DHT22;3114;48.362;10.994;2022-12-07T13:43:53;5.90;99.90
6164;DHT22;3114;48.362;10.994;2022-12-07T13:46:25;6.00;99.90
6164;DHT22;3114;48.362;10.994;2022-12-07T13:48:53;6.00;99.90
6164;DHT22;3114;48.362;10.994;2022-12-07T13:51:23;6.10;99.90
6164;DHT22;3114;48.362;10.994;2022-12-07T13:53:53;5.80;99.90
6164;DHT22;3114;48.362;10.994;2022-12-07T13:56:22;5.60;99.90
6164;DHT22;3114;48.362;10.994;2022-12-07T13:58:54;5.90;99.90
6164;DHT22;3114;48.362;10.994;2022-12-07T14:01:21;6.20;99.90
6164;DHT22;3114;48.362;10.994;2022-12-07T14:03:48;6.20;99.90
6164;DHT22;3114;48.362;10.994;2022-12-07T14:06:25;6.40;99.90
6164;DHT22;3114;48.362;10.994;2022-12-07T14:09:16;6.60;99.90
6164;DHT22;3114;48.362;10.994;2022-12-07T14:11:45;6.70;99.90
6164;DHT22;3114;48.362;10.994;2022-12-07T14:14:17;6.80;99.90
6164;DHT22;3114;48.362;10.994;2022-12-07T14:16:56;7.00;99.90
6164;DHT22;3114;48.362;10.994;2022-12-07T14:19:42;7.00;99.90
6164;DHT22;3114;48.362;10.994;2022-12-07T14:22:19;7.00;99.90
6164;DHT22;3114;48.362;10.994;2022-12-07T14:24:47;7.10;99.90
6164;DHT22;3114;48.362;10.994;2022-12-07T14:27:18;7.00;99.90
6164;DHT22;3114;48.362;10.994;2022-12-07T14:29:47;6.80;99.90
6164;DHT22;3114;48.362;10.994;2022-12-07T14:32:22;6.80;99.90
6164;DHT22;3114;48.362;10.994;2022-12-07T14:35:01;6.90;99.90
6164;DHT22;3114;48.362;10.994;2022-12-07T14:37:30;6.90;99.90
6164;DHT22;3114;48.362;10.994;2022-12-07T14:39:57;6.60;99.90
6164;DHT22;3114;48.362;10.994;2022-12-07T14:42:27;6.60;99.90
6164;DHT22;3114;48.362;10.994;2022-12-07T14:44:57;6.70;99.90
6164;DHT22;3114;48.362;10.994;2022-12-07T14:47:24;6.90;99.90
6164;DHT22;3114;48.362;10.994;2022-12-07T14:49:52;6.90;99.90
6164;DHT22;3114;48.362;10.994;2022-12-07T14:52:21;6.80;99.90
6164;DHT22;3114;48.362;10.994;2022-12-07T14:54:49;6.60;99.90
6164;DHT22;3114;48.362;10.994;2022-12-07T14:57:16;6.50;99.90
6164;DHT22;3114;48.362;10.994;2022-12-07T14:59:43;6.50;99.90
6164;DHT22;3114;48.362;10.994;2022-12-07T15:02:12;6.10;99.90
6164;DHT22;3114;48.362;10.994;2022-12-07T15:04:40;6.10;99.90
6164;DHT22;3114;48.362;10.994;2022-12-07T15:07:12;6.20;99.90
6164;DHT22;3114;48.362;10.994;2022-12-07T15:09:41;6.40;99.90
6164;DHT22;3114;48.362;10.994;2022-12-07T15:12:08;6.50;99.90
6164;DHT22;3114;48.362;10.994;2022-12-07T15:14:35;6.30;99.90
6164;DHT22;3114;48.362;10.994;2022-12-07T15:17:01;6.50;99.90
6164;DHT22;3114;48.362;10.994;2022-12-07T15:19:30;6.50;99.90
6164;DHT22;3114;48.362;10.994;2022-12-07T15:21:57;6.60;99.90
6164;DHT22;3114;48.362;10.994;2022-12-07T15:24:25;6.40;99.90
6164;DHT22;3114;48.362;10.994;2022-12-07T15:26:53;6.30;99.90
6164;DHT22;3114;48.362;10.994;2022-12-07T15:29:20;6.40;99.90
6164;DHT22;3114;48.362;10.994;2022-12-07T15:31:48;6.40;99.90
6164;DHT22;3114;48.362;10.994;2022-12-07T15:34:15;6.50;99.90
6164;DHT22;3114;48.362;10.994;2022-12-07T15:36:43;6.70;99.90
6164;DHT22;3114;48.362;10.994;2022-12-07T15:39:10;6.80;99.90
6164;DHT22;3114;48.362;10.994;2022-12-07T15:41:38;6.90;99.90
6164;DHT22;3114;48.362;10.994;2022-12-07T15:44:05;7.00;99.90
6164;DHT22;3114;48.362;10.994;2022-12-07T15:46:49;6.90;99.90
6164;DHT22;3114;48.362;10.994;2022-12-07T15:49:18;6.90;99.90
6164;DHT22;3114;48.362;10.994;2022-12-07T15:51:46;7.00;99.90
6164;DHT22;3114;48.362;10.994;2022-12-07T15:54:18;6.90;99.90
6164;DHT22;3114;48.362;10.994;2022-12-07T15:56:45;6.80;99.90
6164;DHT22;3114;48.362;10.994;2022-12-07T15:59:12;6.70;99.90
6164;DHT22;3114;48.362;10.994;2022-12-07T16:01:39;6.80;99.90
6164;DHT22;3114;48.362;10.994;2022-12-07T16:04:06;6.70;99.90
6164;DHT22;3114;48.362;10.994;2022-12-07T16:06:32;6.70;99.90
6164;DHT22;3114;48.362;10.994;2022-12-07T16:09:01;6.40;99.90
6164;DHT22;3114;48.362;10.994;2022-12-07T16:11:28;6.50;99.90
6164;DHT22;3114;48.362;10.994;2022-12-07T16:13:55;6.40;99.90
6164;DHT22;3114;48.362;10.994;2022-12-07T16:16:22;6.50;99.90
6164;DHT22;3114;48.362;10.994;2022-12-07T16:18:50;6.50;99.90
6164;DHT22;3114;48.362;10.994;2022-12-07T16:21:17;6.50;99.90
6164;DHT22;3114;48.362;10.994;2022-12-07T16:23:44;6.60;99.90
6164;DHT22;3114;48.362;10.994;2022-12-07T16:26:14;6.50;99.90
6164;DHT22;3114;48.362;10.994;2022-12-07T16:28:42;6.40;99.90
6164;DHT22;3114;48.362;10.994;2022-12-07T16:31:11;6.40;99.90
6164;DHT22;3114;48.362;10.994;2022-12-07T16:33:39;6.40;99.90
6164;DHT22;3114;48.362;10.994;2022-12-07T16:36:08;6.40;99.90
6164;DHT22;3114;48.362;10.994;2022-12-07T16:38:36;6.40;99.90